Time;durP1;ratioP1;P1;durP2;ratioP2;P2;SDS_P1;SDS_P2;PMS_P1;PMS_P2;Temp;Humidity;BMP_temperature;BMP_pressure;BME280_temperature;BME280_humidity;BME280_pressure;Samples;Min_cycle;Max_cycle;Signal;HPM_P1;HPM_P2
2022/01/22 00:00:29;;;;;;;;;;;0.20;99.90;;;;;;5074729;28;19915;-72
2022/01/22 00:02:54;;;;;;;;;;;0.20;99.90;;;;;;5071290;28;19932;-72
2022/01/22 00:05:21;;;;;;;;;;;0.20;99.90;;;;;;5076809;28;20006;-72
2022/01/22 00:07:46;;;;;;;;;;;0.20;99.90;;;;;;5076128;28;20288;-72
2022/01/22 00:10:17;;;;;;;;;;;0.20;99.90;;;;;;5073998;28;19908;-72
2022/01/22 00:15:31;;;;;;;;;;;0.20;99.90;;;;;;5039029;28;20451;-72
2022/01/22 00:17:56;;;;;;;;;;;0.20;99.90;;;;;;5074660;28;20188;-72
2022/01/22 00:20:23;;;;;;;;;;;0.20;99.90;;;;;;5071813;28;20338;-72
2022/01/22 00:22:49;;;;;;;;;;;0.20;99.90;;;;;;5075222;28;19908;-72
2022/01/22 00:25:15;;;;;;;;;;;0.20;99.90;;;;;;5074669;28;19916;-72
2022/01/22 00:27:42;;;;;;;;;;;0.20;99.90;;;;;;5073536;28;19909;-72
2022/01/22 00:30:12;;;;;;;;;;;0.20;99.90;;;;;;5071167;28;19908;-72
2022/01/22 00:32:38;;;;;;;;;;;0.20;99.90;;;;;;5070653;28;19919;-72
2022/01/22 00:35:05;;;;;;;;;;;0.20;99.90;;;;;;5073863;28;20417;-72
2022/01/22 00:37:30;;;;;;;;;;;0.20;99.90;;;;;;5078927;28;20289;-72
2022/01/22 00:39:56;;;;;;;;;;;0.30;99.90;;;;;;5077237;28;19909;-72
2022/01/22 00:42:23;;;;;;;;;;;0.30;99.90;;;;;;5084257;28;20304;-72
2022/01/22 00:44:51;;;;;;;;;;;0.30;99.90;;;;;;5080766;28;20277;-72
2022/01/22 00:47:18;;;;;;;;;;;0.30;99.90;;;;;;5074252;28;19909;-73
2022/01/22 00:49:43;;;;;;;;;;;0.30;99.90;;;;;;5074518;28;19912;-72
2022/01/22 00:52:09;;;;;;;;;;;0.30;99.90;;;;;;5074147;28;19923;-72
2022/01/22 00:54:35;;;;;;;;;;;0.30;99.90;;;;;;5074046;28;19912;-72
2022/01/22 00:57:00;;;;;;;;;;;0.30;99.90;;;;;;5074349;28;20377;-72
2022/01/22 00:59:26;;;;;;;;;;;0.30;99.90;;;;;;5074448;28;20288;-72
2022/01/22 01:01:51;;;;;;;;;;;0.30;99.90;;;;;;5074061;28;20296;-72
2022/01/22 01:04:16;;;;;;;;;;;0.30;99.90;;;;;;5073545;28;19962;-72
2022/01/22 01:06:42;;;;;;;;;;;0.30;99.90;;;;;;5071087;28;19963;-72
2022/01/22 01:09:08;;;;;;;;;;;0.30;99.90;;;;;;5071783;28;20328;-72
2022/01/22 01:11:38;;;;;;;;;;;0.30;99.90;;;;;;5079276;28;19919;-72
2022/01/22 01:14:07;;;;;;;;;;;0.30;99.90;;;;;;5076670;28;19916;-72
2022/01/22 01:35:12;;;;;;;;;;;0.40;99.90;;;;;;5073488;28;19917;-72
2022/01/22 01:37:38;;;;;;;;;;;0.40;99.90;;;;;;5073536;28;19954;-72
2022/01/22 01:40:06;;;;;;;;;;;0.40;99.90;;;;;;5073303;28;19917;-72
2022/01/22 01:45:09;;;;;;;;;;;0.40;99.90;;;;;;5072965;28;19908;-72
2022/01/22 01:47:36;;;;;;;;;;;0.40;99.90;;;;;;5073514;28;19958;-72
2022/01/22 01:50:02;;;;;;;;;;;0.50;99.90;;;;;;5073128;28;19909;-72
2022/01/22 01:55:10;;;;;;;;;;;0.50;99.90;;;;;;5073013;28;19909;-72
2022/01/22 01:57:39;;;;;;;;;;;0.50;99.90;;;;;;5077844;28;20396;-72
2022/01/22 02:00:11;;;;;;;;;;;0.50;99.90;;;;;;5073343;28;20273;-72
2022/01/22 02:02:38;;;;;;;;;;;0.50;99.90;;;;;;5073040;28;20310;-72
2022/01/22 02:05:03;;;;;;;;;;;0.50;99.90;;;;;;5072394;28;19952;-72
2022/01/22 02:07:29;;;;;;;;;;;0.50;99.90;;;;;;5073059;28;19908;-73
2022/01/22 02:09:55;;;;;;;;;;;0.50;99.90;;;;;;5072782;28;19912;-72
2022/01/22 02:25:56;;;;;;;;;;;0.60;99.90;;;;;;5091839;28;19931;-73
2022/01/22 02:28:21;;;;;;;;;;;0.60;99.90;;;;;;5092158;28;19912;-72
2022/01/22 02:30:51;;;;;;;;;;;0.60;99.90;;;;;;5091778;28;19954;-72
2022/01/22 02:36:07;;;;;;;;;;;0.60;99.90;;;;;;5092126;28;19912;-72
2022/01/22 02:38:41;;;;;;;;;;;0.60;99.90;;;;;;5092003;28;19942;-72
2022/01/22 02:41:13;;;;;;;;;;;0.70;99.90;;;;;;5081015;28;19955;-72
2022/01/22 02:43:38;;;;;;;;;;;0.80;99.90;;;;;;5082499;28;19909;-72
2022/01/22 02:46:04;;;;;;;;;;;0.90;99.90;;;;;;5072134;28;19908;-72
2022/01/22 02:48:30;;;;;;;;;;;0.90;99.90;;;;;;5072073;28;19920;-72
2022/01/22 02:50:55;;;;;;;;;;;0.90;99.90;;;;;;5072205;28;19912;-72
2022/01/22 02:53:21;;;;;;;;;;;0.90;99.90;;;;;;5071637;28;19920;-72
2022/01/22 02:55:47;;;;;;;;;;;1.00;99.90;;;;;;5071998;28;19930;-72
2022/01/22 02:58:12;;;;;;;;;;;1.10;99.90;;;;;;5072128;28;20349;-72
2022/01/22 03:00:38;;;;;;;;;;;1.10;99.90;;;;;;5072013;28;20508;-72
2022/01/22 03:03:05;;;;;;;;;;;1.10;99.90;;;;;;5071418;28;19912;-72
2022/01/22 03:05:30;;;;;;;;;;;1.10;99.90;;;;;;5071817;28;20023;-72
2022/01/22 03:07:58;;;;;;;;;;;1.10;99.90;;;;;;5071865;28;19952;-72
2022/01/22 03:10:26;;;;;;;;;;;1.10;99.90;;;;;;5073468;28;19908;-72
2022/01/22 03:18:13;;;;;;;;;;;1.10;99.90;;;;;;5071801;28;19940;-72
2022/01/22 03:28:41;;;;;;;;;;;1.00;99.90;;;;;;5091094;28;20022;-72
2022/01/22 03:31:07;;;;;;;;;;;1.00;99.90;;;;;;5089880;28;20010;-72
2022/01/22 03:33:32;;;;;;;;;;;1.00;99.90;;;;;;5090530;28;19913;-72
2022/01/22 03:35:59;;;;;;;;;;;1.00;99.90;;;;;;5090660;28;20272;-72
2022/01/22 03:38:25;;;;;;;;;;;0.90;99.90;;;;;;5090944;28;20008;-72
2022/01/22 03:40:51;;;;;;;;;;;0.90;99.90;;;;;;5083249;28;19952;-72
2022/01/22 03:43:17;;;;;;;;;;;0.90;99.90;;;;;;5081270;28;19998;-72
2022/01/22 03:45:43;;;;;;;;;;;1.00;99.90;;;;;;5072058;28;19920;-72
2022/01/22 03:48:08;;;;;;;;;;;1.00;99.90;;;;;;5072895;28;19908;-72
2022/01/22 03:50:34;;;;;;;;;;;0.90;99.90;;;;;;5071718;28;19991;-72
2022/01/22 03:52:59;;;;;;;;;;;0.90;99.90;;;;;;5069697;28;20336;-72
2022/01/22 03:58:09;;;;;;;;;;;0.90;99.90;;;;;;5072707;28;20397;-72
2022/01/22 04:00:35;;;;;;;;;;;1.00;99.90;;;;;;5072277;28;19909;-72
2022/01/22 04:06:06;;;;;;;;;;;1.00;99.90;;;;;;5071230;28;19997;-72
2022/01/22 04:08:29;;;;;;;;;;;1.00;99.90;;;;;;5085760;28;19915;-72
2022/01/22 04:10:55;;;;;;;;;;;1.00;99.90;;;;;;5082072;28;20288;-72
2022/01/22 04:13:28;;;;;;;;;;;1.00;99.90;;;;;;5084263;28;20284;-72
2022/01/22 04:15:53;;;;;;;;;;;1.00;99.90;;;;;;5075133;28;20388;-72
2022/01/22 04:29:06;;;;;;;;;;;1.10;99.90;;;;;;5094567;28;20003;-72
2022/01/22 04:31:31;;;;;;;;;;;1.10;99.90;;;;;;5094622;28;20441;-72
2022/01/22 04:33:57;;;;;;;;;;;1.10;99.90;;;;;;5093979;28;19914;-73
2022/01/22 04:36:22;;;;;;;;;;;1.10;99.90;;;;;;5094380;28;19908;-72
2022/01/22 04:38:48;;;;;;;;;;;1.10;99.90;;;;;;5094413;28;19959;-72
2022/01/22 04:41:13;;;;;;;;;;;1.10;99.90;;;;;;5085445;28;20257;-72
2022/01/22 04:43:41;;;;;;;;;;;1.10;99.90;;;;;;5077349;28;19908;-72
2022/01/22 04:46:16;;;;;;;;;;;1.10;99.90;;;;;;5074905;28;19908;-72
2022/01/22 04:56:45;;;;;;;;;;;1.00;99.90;;;;;;5088874;28;20372;-72
2022/01/22 04:59:10;;;;;;;;;;;1.00;99.90;;;;;;5093872;28;20006;-72
2022/01/22 05:01:36;;;;;;;;;;;1.10;99.90;;;;;;5094407;28;19908;-72
2022/01/22 05:04:01;;;;;;;;;;;1.10;99.90;;;;;;5093456;28;20369;-73
2022/01/22 05:06:29;;;;;;;;;;;1.00;99.90;;;;;;5093789;28;19912;-72
2022/01/22 05:08:55;;;;;;;;;;;1.00;99.90;;;;;;5074475;28;19909;-72
2022/01/22 05:11:20;;;;;;;;;;;1.00;99.90;;;;;;5086963;28;20281;-72
2022/01/22 05:13:46;;;;;;;;;;;1.00;99.90;;;;;;5081808;28;19924;-72
2022/01/22 05:16:12;;;;;;;;;;;1.00;99.90;;;;;;5074123;28;19909;-72
2022/01/22 05:18:46;;;;;;;;;;;1.00;99.90;;;;;;5074086;28;20007;-72
2022/01/22 05:21:15;;;;;;;;;;;1.00;99.90;;;;;;5087075;28;19908;-72
2022/01/22 05:23:42;;;;;;;;;;;1.00;99.90;;;;;;5092664;28;19915;-72
2022/01/22 05:26:22;;;;;;;;;;;0.90;99.90;;;;;;5092508;28;19930;-72
2022/01/22 05:31:40;;;;;;;;;;;1.00;99.90;;;;;;5093538;28;19912;-72
2022/01/22 05:37:05;;;;;;;;;;;1.00;99.90;;;;;;5093180;28;19912;-72
2022/01/22 05:39:31;;;;;;;;;;;1.00;99.90;;;;;;5073684;28;20436;-72
2022/01/22 05:41:58;;;;;;;;;;;1.10;99.90;;;;;;5080450;28;19983;-72
2022/01/22 05:44:23;;;;;;;;;;;1.10;99.90;;;;;;5079051;28;19935;-72
2022/01/22 05:46:51;;;;;;;;;;;1.00;99.90;;;;;;5073691;28;20381;-72
2022/01/22 05:49:19;;;;;;;;;;;0.90;99.90;;;;;;5073634;28;19915;-73
2022/01/22 05:51:46;;;;;;;;;;;0.90;99.90;;;;;;5073512;28;20214;-72
2022/01/22 05:59:40;;;;;;;;;;;0.80;99.90;;;;;;5073745;28;19915;-72
2022/01/22 06:02:07;;;;;;;;;;;0.80;99.90;;;;;;5086335;28;19963;-72
2022/01/22 06:04:33;;;;;;;;;;;0.90;99.90;;;;;;5092231;28;19908;-72
2022/01/22 06:06:59;;;;;;;;;;;0.90;99.90;;;;;;5092613;28;19930;-72
2022/01/22 06:09:25;;;;;;;;;;;0.90;99.90;;;;;;5092611;28;19908;-72
2022/01/22 06:11:56;;;;;;;;;;;0.90;99.90;;;;;;5081256;28;19916;-73
2022/01/22 06:14:21;;;;;;;;;;;0.90;99.90;;;;;;5073916;28;19978;-72
2022/01/22 06:16:47;;;;;;;;;;;0.90;99.90;;;;;;5072967;28;20369;-72
2022/01/22 06:19:12;;;;;;;;;;;0.90;99.90;;;;;;5072727;28;19909;-72
2022/01/22 06:21:38;;;;;;;;;;;0.90;99.90;;;;;;5073062;28;19954;-72
2022/01/22 06:24:03;;;;;;;;;;;0.90;99.90;;;;;;5072577;28;19938;-73
2022/01/22 06:26:29;;;;;;;;;;;0.90;99.90;;;;;;5073320;28;19955;-72
2022/01/22 06:28:54;;;;;;;;;;;0.80;99.90;;;;;;5073410;28;19908;-72
2022/01/22 06:31:20;;;;;;;;;;;0.80;99.90;;;;;;5072882;28;19908;-72
2022/01/22 06:33:46;;;;;;;;;;;0.80;99.90;;;;;;5072498;28;19919;-72
2022/01/22 06:36:12;;;;;;;;;;;0.80;99.90;;;;;;5076488;28;19909;-72
2022/01/22 06:38:37;;;;;;;;;;;0.90;99.90;;;;;;5075319;28;19954;-72
2022/01/22 06:43:47;;;;;;;;;;;0.90;99.90;;;;;;5082592;28;19918;-72
2022/01/22 06:46:13;;;;;;;;;;;0.90;99.90;;;;;;5072188;28;19913;-72
2022/01/22 06:48:38;;;;;;;;;;;0.90;99.90;;;;;;5072851;28;19990;-72
2022/01/22 06:51:04;;;;;;;;;;;0.90;99.90;;;;;;5072418;28;19909;-72
2022/01/22 06:53:29;;;;;;;;;;;0.90;99.90;;;;;;5072348;28;19917;-72
2022/01/22 06:55:59;;;;;;;;;;;0.90;99.90;;;;;;5072743;28;19912;-72
2022/01/22 06:58:24;;;;;;;;;;;0.90;99.90;;;;;;5072450;28;19915;-73
2022/01/22 07:00:50;;;;;;;;;;;0.90;99.90;;;;;;5072118;28;20361;-72
2022/01/22 07:03:16;;;;;;;;;;;0.90;99.90;;;;;;5071980;28;20289;-72
2022/01/22 07:05:41;;;;;;;;;;;0.90;99.90;;;;;;5072323;28;20436;-72
2022/01/22 07:08:07;;;;;;;;;;;0.90;99.90;;;;;;5072086;28;19914;-72
2022/01/22 07:10:32;;;;;;;;;;;0.80;99.90;;;;;;5075754;28;19915;-72
2022/01/22 07:12:58;;;;;;;;;;;0.90;99.90;;;;;;5078442;28;20378;-72
2022/01/22 07:15:23;;;;;;;;;;;0.90;99.90;;;;;;5074873;28;20381;-72
2022/01/22 07:17:49;;;;;;;;;;;0.90;99.90;;;;;;5071930;28;19908;-72
2022/01/22 07:20:18;;;;;;;;;;;0.90;99.90;;;;;;5072026;28;19919;-72
2022/01/22 07:23:00;;;;;;;;;;;0.90;99.90;;;;;;5071984;28;19917;-72
2022/01/22 07:25:26;;;;;;;;;;;0.90;99.90;;;;;;5071811;28;19914;-72
2022/01/22 07:27:51;;;;;;;;;;;1.00;99.90;;;;;;5077124;28;19908;-72
2022/01/22 07:30:17;;;;;;;;;;;0.90;99.90;;;;;;5073704;28;20415;-72
2022/01/22 07:32:44;;;;;;;;;;;1.00;99.90;;;;;;5071723;28;20126;-72
2022/01/22 07:35:11;;;;;;;;;;;1.00;99.90;;;;;;5071620;28;19915;-72
2022/01/22 07:37:36;;;;;;;;;;;1.00;99.90;;;;;;5071704;28;19908;-72
2022/01/22 07:40:03;;;;;;;;;;;1.00;99.90;;;;;;5071607;28;19915;-72
2022/01/22 07:42:29;;;;;;;;;;;1.00;99.90;;;;;;5081679;28;20282;-72
2022/01/22 07:44:54;;;;;;;;;;;1.00;99.90;;;;;;5073062;28;19932;-72
2022/01/22 07:47:20;;;;;;;;;;;1.00;99.90;;;;;;5071106;28;19939;-72
2022/01/22 07:49:45;;;;;;;;;;;0.90;99.90;;;;;;5071468;28;19909;-72
2022/01/22 07:52:11;;;;;;;;;;;0.90;99.90;;;;;;5071481;28;19916;-72
2022/01/22 07:54:36;;;;;;;;;;;1.00;99.90;;;;;;5070984;28;19908;-72
2022/01/22 07:57:02;;;;;;;;;;;1.00;99.90;;;;;;5071360;28;19912;-72
2022/01/22 07:59:29;;;;;;;;;;;1.00;99.90;;;;;;5071341;28;19962;-72
2022/01/22 08:01:54;;;;;;;;;;;1.00;99.90;;;;;;5071498;28;19919;-72
2022/01/22 08:04:24;;;;;;;;;;;1.10;99.90;;;;;;5070928;28;19908;-72
2022/01/22 08:06:50;;;;;;;;;;;1.10;99.90;;;;;;5071350;28;20083;-72
2022/01/22 08:09:16;;;;;;;;;;;1.20;99.90;;;;;;5071189;28;19908;-72
2022/01/22 08:11:41;;;;;;;;;;;1.20;99.90;;;;;;5078285;28;20230;-72
2022/01/22 08:14:09;;;;;;;;;;;1.20;99.90;;;;;;5080357;28;20007;-72
2022/01/22 08:16:34;;;;;;;;;;;1.20;99.90;;;;;;5071046;28;19928;-72
2022/01/22 08:19:00;;;;;;;;;;;1.30;99.90;;;;;;5070052;28;20002;-72
2022/01/22 08:21:25;;;;;;;;;;;1.30;99.90;;;;;;5071054;28;19940;-72
2022/01/22 08:23:51;;;;;;;;;;;1.30;99.90;;;;;;5070832;28;19955;-72
2022/01/22 08:26:21;;;;;;;;;;;1.30;99.90;;;;;;5070890;28;19955;-72
2022/01/22 08:28:58;;;;;;;;;;;1.30;99.90;;;;;;5071219;28;19908;-72
2022/01/22 08:36:22;;;;;;;;;;;1.20;99.90;;;;;;5070868;28;20015;-72
2022/01/22 08:38:49;;;;;;;;;;;1.30;99.90;;;;;;5070974;28;19913;-72
2022/01/22 08:41:14;;;;;;;;;;;1.30;99.90;;;;;;5077300;28;19919;-72
2022/01/22 08:43:40;;;;;;;;;;;1.30;99.90;;;;;;5072218;28;19909;-72
2022/01/22 08:46:05;;;;;;;;;;;1.20;99.90;;;;;;5071024;28;19908;-72
2022/01/22 08:48:31;;;;;;;;;;;1.20;99.90;;;;;;5071062;28;19987;-72
2022/01/22 08:50:57;;;;;;;;;;;1.20;99.90;;;;;;5070857;28;20391;-73
2022/01/22 08:53:22;;;;;;;;;;;1.20;99.90;;;;;;5084131;28;20361;-72
2022/01/22 08:55:48;;;;;;;;;;;1.30;99.90;;;;;;5084918;28;19962;-72
2022/01/22 08:58:13;;;;;;;;;;;1.30;99.90;;;;;;5081025;28;19938;-72
2022/01/22 09:00:39;;;;;;;;;;;1.30;99.90;;;;;;5080468;28;20035;-72
2022/01/22 09:03:05;;;;;;;;;;;1.30;99.90;;;;;;5076686;28;20364;-72
2022/01/22 09:05:35;;;;;;;;;;;1.40;99.90;;;;;;5077839;28;19909;-72
2022/01/22 09:08:00;;;;;;;;;;;1.40;99.90;;;;;;5087130;28;19908;-72
2022/01/22 09:10:26;;;;;;;;;;;1.40;99.90;;;;;;5079439;28;19988;-72
2022/01/22 09:12:52;;;;;;;;;;;1.40;99.90;;;;;;5087077;28;19912;-72
2022/01/22 09:15:17;;;;;;;;;;;1.40;99.90;;;;;;5074160;28;20377;-72
2022/01/22 09:17:48;;;;;;;;;;;1.40;99.90;;;;;;5074335;28;19931;-72
2022/01/22 09:20:29;;;;;;;;;;;1.40;99.90;;;;;;5073765;28;19908;-72
2022/01/22 09:22:55;;;;;;;;;;;1.50;99.90;;;;;;5078738;28;20273;-72
2022/01/22 09:25:20;;;;;;;;;;;1.50;99.90;;;;;;5074694;28;19919;-72
2022/01/22 09:27:46;;;;;;;;;;;1.60;99.90;;;;;;5078046;28;19916;-72
2022/01/22 09:30:11;;;;;;;;;;;1.60;99.90;;;;;;5083752;28;19960;-72
2022/01/22 09:32:37;;;;;;;;;;;1.60;99.90;;;;;;5076808;28;19920;-72
2022/01/22 09:35:03;;;;;;;;;;;1.60;99.90;;;;;;5073100;28;19908;-72
2022/01/22 09:37:28;;;;;;;;;;;1.60;99.90;;;;;;5074088;28;19909;-72
2022/01/22 09:39:54;;;;;;;;;;;1.70;99.90;;;;;;5074363;28;19913;-72
2022/01/22 09:42:19;;;;;;;;;;;1.70;99.90;;;;;;5086269;28;19908;-72
2022/01/22 09:44:45;;;;;;;;;;;1.70;99.90;;;;;;5085205;28;19995;-72
2022/01/22 09:47:11;;;;;;;;;;;1.80;99.90;;;;;;5093142;28;19908;-73
2022/01/22 09:49:37;;;;;;;;;;;1.90;99.90;;;;;;5091549;28;20018;-72
2022/01/22 09:52:03;;;;;;;;;;;1.80;99.90;;;;;;5091511;28;20118;-72
2022/01/22 09:54:28;;;;;;;;;;;1.80;99.90;;;;;;5092174;28;19953;-72
2022/01/22 09:56:56;;;;;;;;;;;1.80;99.90;;;;;;5089127;28;19912;-72
2022/01/22 09:59:21;;;;;;;;;;;1.90;99.90;;;;;;5078976;28;19908;-72
2022/01/22 10:01:48;;;;;;;;;;;1.90;99.90;;;;;;5072987;28;19915;-72
2022/01/22 10:04:14;;;;;;;;;;;2.00;99.90;;;;;;5072321;28;19912;-72
2022/01/22 10:06:49;;;;;;;;;;;2.10;99.90;;;;;;5072293;28;20446;-72
2022/01/22 10:09:25;;;;;;;;;;;2.10;99.90;;;;;;5069675;28;20396;-72
2022/01/22 10:12:10;;;;;;;;;;;2.10;99.90;;;;;;5080357;28;19916;-72
2022/01/22 10:14:55;;;;;;;;;;;2.10;99.90;;;;;;5073850;28;20265;-72
2022/01/22 10:17:40;;;;;;;;;;;2.30;99.90;;;;;;5072905;28;19909;-72
2022/01/22 10:20:20;;;;;;;;;;;2.30;99.90;;;;;;5085852;28;19915;-72
2022/01/22 10:22:46;;;;;;;;;;;2.30;99.90;;;;;;5091908;28;20374;-72
2022/01/22 10:25:25;;;;;;;;;;;2.30;99.90;;;;;;5090456;28;20223;-73
2022/01/22 10:27:57;;;;;;;;;;;2.30;99.90;;;;;;5077761;28;20024;-72
2022/01/22 10:30:23;;;;;;;;;;;2.30;99.90;;;;;;5074839;28;19914;-72
2022/01/22 10:33:00;;;;;;;;;;;2.30;99.90;;;;;;5072314;28;20011;-72
2022/01/22 10:35:26;;;;;;;;;;;2.40;99.90;;;;;;5071871;28;19912;-72
2022/01/22 10:37:55;;;;;;;;;;;2.40;99.90;;;;;;5072539;28;19908;-72
2022/01/22 10:40:27;;;;;;;;;;;2.40;99.90;;;;;;5077447;28;19914;-72
2022/01/22 10:43:16;;;;;;;;;;;2.30;99.90;;;;;;5086436;28;20431;-72
2022/01/22 10:45:41;;;;;;;;;;;2.30;99.90;;;;;;5068308;28;20358;-72
2022/01/22 10:48:14;;;;;;;;;;;2.30;99.90;;;;;;5072719;28;19908;-72
2022/01/22 10:50:40;;;;;;;;;;;2.20;99.90;;;;;;5072331;28;20395;-73
2022/01/22 10:53:05;;;;;;;;;;;2.30;99.90;;;;;;5070690;28;19917;-73
2022/01/22 10:55:31;;;;;;;;;;;2.40;99.90;;;;;;5071002;28;19909;-72
2022/01/22 10:58:03;;;;;;;;;;;2.40;99.90;;;;;;5077432;28;19973;-72
2022/01/22 11:00:29;;;;;;;;;;;2.40;99.90;;;;;;5072711;28;19916;-72
2022/01/22 11:02:54;;;;;;;;;;;2.40;99.90;;;;;;5078986;28;19909;-72
2022/01/22 11:05:33;;;;;;;;;;;2.40;99.90;;;;;;5071454;28;19978;-72
2022/01/22 11:08:08;;;;;;;;;;;2.50;99.90;;;;;;5075280;28;19995;-72
2022/01/22 11:10:34;;;;;;;;;;;2.60;99.90;;;;;;5087413;28;19912;-72
2022/01/22 11:13:00;;;;;;;;;;;2.70;99.90;;;;;;5074700;28;20284;-72
2022/01/22 11:15:26;;;;;;;;;;;2.70;99.90;;;;;;5073414;28;19959;-73
2022/01/22 11:17:52;;;;;;;;;;;2.70;99.90;;;;;;5069831;28;20326;-72
2022/01/22 11:20:18;;;;;;;;;;;2.60;99.90;;;;;;5072259;28;20262;-72
2022/01/22 11:22:44;;;;;;;;;;;2.60;99.90;;;;;;5070886;28;19920;-72
2022/01/22 11:25:10;;;;;;;;;;;2.70;99.90;;;;;;5071294;28;19908;-72
2022/01/22 11:27:36;;;;;;;;;;;2.80;99.90;;;;;;5071667;28;19920;-72
2022/01/22 11:30:02;;;;;;;;;;;2.90;99.90;;;;;;5071586;28;20297;-72
2022/01/22 11:32:29;;;;;;;;;;;2.90;99.90;;;;;;5071487;28;19916;-72
2022/01/22 11:34:57;;;;;;;;;;;2.90;99.90;;;;;;5071075;28;19938;-73
2022/01/22 11:37:45;;;;;;;;;;;3.00;99.90;;;;;;5071689;28;19912;-72
2022/01/22 11:40:17;;;;;;;;;;;3.10;99.90;;;;;;5070297;28;19909;-73
2022/01/22 11:43:08;;;;;;;;;;;3.10;99.90;;;;;;5084670;28;20280;-72
2022/01/22 11:45:38;;;;;;;;;;;3.20;99.90;;;;;;5071531;28;20066;-73
2022/01/22 11:48:12;;;;;;;;;;;3.20;99.90;;;;;;5071387;28;19913;-72
2022/01/22 11:50:39;;;;;;;;;;;3.00;99.90;;;;;;5071398;28;19908;-73
2022/01/22 11:53:23;;;;;;;;;;;3.10;99.90;;;;;;5071143;28;19916;-72
2022/01/22 11:56:08;;;;;;;;;;;3.10;99.90;;;;;;5071241;28;20047;-73
2022/01/22 11:58:54;;;;;;;;;;;3.20;99.90;;;;;;5086069;28;19912;-72
2022/01/22 12:01:38;;;;;;;;;;;3.20;99.90;;;;;;5058965;28;20307;-73
2022/01/22 12:04:04;;;;;;;;;;;3.20;99.90;;;;;;5090567;28;20010;-73
2022/01/22 12:06:29;;;;;;;;;;;3.20;99.90;;;;;;5071160;28;20401;-72
2022/01/22 12:09:14;;;;;;;;;;;3.20;99.90;;;;;;5071210;28;19931;-72
2022/01/22 12:14:49;;;;;;;;;;;3.20;99.90;;;;;;5076816;28;19955;-73
2022/01/22 12:17:29;;;;;;;;;;;3.30;99.90;;;;;;5084745;28;19908;-72
2022/01/22 12:22:30;;;;;;;;;;;3.40;99.90;;;;;;5079000;28;19909;-73
2022/01/22 12:24:56;;;;;;;;;;;3.40;99.90;;;;;;5071998;28;19908;-72
2022/01/22 12:27:40;;;;;;;;;;;3.40;99.90;;;;;;5072093;28;20335;-72
2022/01/22 12:30:05;;;;;;;;;;;3.40;99.90;;;;;;5072130;28;19913;-72
2022/01/22 12:32:42;;;;;;;;;;;3.40;99.90;;;;;;5071826;28;19943;-72
2022/01/22 12:35:09;;;;;;;;;;;3.40;99.90;;;;;;5074862;28;19913;-73
2022/01/22 12:37:39;;;;;;;;;;;3.50;99.90;;;;;;5095383;28;20277;-73
2022/01/22 12:40:06;;;;;;;;;;;3.50;99.90;;;;;;5092077;28;19951;-73
2022/01/22 12:43:11;;;;;;;;;;;3.40;99.90;;;;;;5079065;28;20220;-73
2022/01/22 12:45:37;;;;;;;;;;;3.30;99.90;;;;;;5073758;28;19908;-72
2022/01/22 12:48:03;;;;;;;;;;;3.30;99.90;;;;;;5075710;28;20396;-73
2022/01/22 12:50:31;;;;;;;;;;;3.30;99.90;;;;;;5075528;28;19909;-73
2022/01/22 12:53:03;;;;;;;;;;;3.30;99.90;;;;;;5075127;28;20003;-73
2022/01/22 12:55:49;;;;;;;;;;;3.30;99.90;;;;;;5075618;28;20285;-72
2022/01/22 12:58:23;;;;;;;;;;;3.30;99.90;;;;;;5089316;28;19991;-72
2022/01/22 13:00:51;;;;;;;;;;;3.50;99.90;;;;;;5094891;28;19962;-73
2022/01/22 13:03:34;;;;;;;;;;;3.50;99.90;;;;;;5094368;28;19908;-72
2022/01/22 13:05:59;;;;;;;;;;;3.50;99.90;;;;;;5094699;28;19931;-74
2022/01/22 13:08:29;;;;;;;;;;;3.50;99.90;;;;;;5094825;28;20361;-72
2022/01/22 13:10:56;;;;;;;;;;;3.50;99.90;;;;;;5087341;28;19912;-72
2022/01/22 13:13:21;;;;;;;;;;;3.50;99.90;;;;;;5082685;28;20015;-72
2022/01/22 13:15:59;;;;;;;;;;;3.40;99.90;;;;;;5074646;28;20444;-72
2022/01/22 13:18:24;;;;;;;;;;;3.40;99.90;;;;;;5075351;28;19920;-72
2022/01/22 13:20:50;;;;;;;;;;;3.50;99.90;;;;;;5074957;28;20312;-72
2022/01/22 13:23:16;;;;;;;;;;;3.50;99.90;;;;;;5074524;28;19955;-72
2022/01/22 13:25:42;;;;;;;;;;;3.60;99.90;;;;;;5074856;28;19908;-73
2022/01/22 13:28:11;;;;;;;;;;;3.60;99.90;;;;;;5074856;28;19909;-72
2022/01/22 13:30:43;;;;;;;;;;;3.70;99.90;;;;;;5075140;28;19915;-73
2022/01/22 13:33:14;;;;;;;;;;;3.70;99.90;;;;;;5074409;28;19948;-73
2022/01/22 13:49:08;;;;;;;;;;;3.60;99.90;;;;;;5073530;28;19918;-73
2022/01/22 13:51:33;;;;;;;;;;;3.60;99.90;;;;;;5073448;28;20007;-72
2022/01/22 13:54:01;;;;;;;;;;;3.50;99.90;;;;;;5073150;28;19920;-73
2022/01/22 13:56:48;;;;;;;;;;;3.50;99.90;;;;;;5073391;28;20422;-72
2022/01/22 13:59:14;;;;;;;;;;;3.50;99.90;;;;;;5073576;28;19995;-73
2022/01/22 14:01:50;;;;;;;;;;;3.50;99.90;;;;;;5073189;28;20292;-73
2022/01/22 14:04:15;;;;;;;;;;;3.50;99.90;;;;;;5073275;28;19948;-72
2022/01/22 14:06:45;;;;;;;;;;;3.50;99.90;;;;;;5073153;28;19916;-73
2022/01/22 14:09:17;;;;;;;;;;;3.50;99.90;;;;;;5072003;28;19912;-73
2022/01/22 14:12:02;;;;;;;;;;;3.50;99.90;;;;;;5080470;28;20435;-73
2022/01/22 14:14:30;;;;;;;;;;;3.40;99.90;;;;;;5072492;28;19920;-73
2022/01/22 14:17:10;;;;;;;;;;;3.40;99.90;;;;;;5073045;28;19908;-72
2022/01/22 14:19:35;;;;;;;;;;;3.40;99.90;;;;;;5072898;28;19912;-73
2022/01/22 14:22:01;;;;;;;;;;;3.40;99.90;;;;;;5073110;28;19915;-73
2022/01/22 14:24:30;;;;;;;;;;;3.40;99.90;;;;;;5072226;28;19909;-72
2022/01/22 14:26:56;;;;;;;;;;;3.40;99.90;;;;;;5073201;28;19915;-73
2022/01/22 14:29:21;;;;;;;;;;;3.40;99.90;;;;;;5072729;28;19908;-73
2022/01/22 14:31:49;;;;;;;;;;;3.30;99.90;;;;;;5073171;28;19912;-73
2022/01/22 14:34:34;;;;;;;;;;;3.30;99.90;;;;;;5072313;28;20010;-72
2022/01/22 14:37:01;;;;;;;;;;;3.30;99.90;;;;;;5084148;28;19968;-73
2022/01/22 14:43:49;;;;;;;;;;;3.30;99.90;;;;;;5092239;28;19948;-72
2022/01/22 14:45:19;;;;;;;;;;;3.30;99.90;;;;;;5009038;28;20387;-72
2022/01/22 14:47:50;;;;;;;;;;;3.20;99.90;;;;;;5059288;28;19915;-73
2022/01/22 14:50:16;;;;;;;;;;;3.20;99.90;;;;;;5085201;28;20357;-72
2022/01/22 14:52:42;;;;;;;;;;;3.10;99.90;;;;;;5092068;28;19912;-72
2022/01/22 14:55:11;;;;;;;;;;;3.10;99.90;;;;;;5091453;28;19908;-72
2022/01/22 14:57:37;;;;;;;;;;;3.10;99.90;;;;;;5091569;28;19915;-73
2022/01/22 15:00:07;;;;;;;;;;;3.10;99.90;;;;;;5091482;28;20006;-73
2022/01/22 15:02:33;;;;;;;;;;;3.00;99.90;;;;;;5091956;28;19908;-73
2022/01/22 15:04:58;;;;;;;;;;;3.00;99.90;;;;;;5091274;28;20341;-73
2022/01/22 15:07:24;;;;;;;;;;;3.00;99.90;;;;;;5091507;28;19999;-72
2022/01/22 15:09:50;;;;;;;;;;;3.00;99.90;;;;;;5090220;28;20042;-72
2022/01/22 15:12:17;;;;;;;;;;;3.00;99.90;;;;;;5078753;28;20341;-72
2022/01/22 15:14:43;;;;;;;;;;;3.00;99.90;;;;;;5077100;28;20317;-73
2022/01/22 15:19:35;;;;;;;;;;;3.00;99.90;;;;;;5072512;28;19908;-73
2022/01/22 15:22:01;;;;;;;;;;;3.00;99.90;;;;;;5071873;28;19910;-72
2022/01/22 15:24:26;;;;;;;;;;;2.90;99.90;;;;;;5072076;28;19935;-72
2022/01/22 15:26:53;;;;;;;;;;;2.90;99.90;;;;;;5071267;28;19940;-72
2022/01/22 15:29:25;;;;;;;;;;;2.90;99.90;;;;;;5072027;28;19915;-73
2022/01/22 15:34:44;;;;;;;;;;;2.80;99.90;;;;;;5071417;28;19917;-73
2022/01/22 15:37:10;;;;;;;;;;;2.80;99.90;;;;;;5086166;28;20356;-73
2022/01/22 15:39:36;;;;;;;;;;;2.80;99.90;;;;;;5090789;28;19965;-73
2022/01/22 15:42:02;;;;;;;;;;;2.80;99.90;;;;;;5077535;28;20003;-73
2022/01/22 15:44:28;;;;;;;;;;;2.80;99.90;;;;;;5071774;28;19915;-73
2022/01/22 15:46:53;;;;;;;;;;;2.80;99.90;;;;;;5071306;28;19909;-73
2022/01/22 15:49:20;;;;;;;;;;;2.80;99.90;;;;;;5071413;28;20425;-72
2022/01/22 15:51:47;;;;;;;;;;;2.80;99.90;;;;;;5071447;28;19909;-73
2022/01/22 15:54:13;;;;;;;;;;;2.70;99.90;;;;;;5070696;28;20831;-72
2022/01/22 15:56:39;;;;;;;;;;;2.70;99.90;;;;;;5071664;28;19991;-73
2022/01/22 15:59:05;;;;;;;;;;;2.60;99.90;;;;;;5071233;28;19913;-72
2022/01/22 16:01:31;;;;;;;;;;;2.60;99.90;;;;;;5071411;28;19990;-72
2022/01/22 16:03:57;;;;;;;;;;;2.60;99.90;;;;;;5070801;28;20368;-72
2022/01/22 16:07:19;;;;;;;;;;;2.60;99.90;;;;;;5090633;28;19908;-72
2022/01/22 16:09:16;;;;;;;;;;;2.60;99.90;;;;;;5083965;28;20015;-72
2022/01/22 16:11:41;;;;;;;;;;;2.50;99.90;;;;;;5085533;28;19913;-72
2022/01/22 16:14:08;;;;;;;;;;;2.50;99.90;;;;;;5081322;28;19926;-72
2022/01/22 16:16:34;;;;;;;;;;;2.50;99.90;;;;;;5075292;28;19908;-72
2022/01/22 16:18:59;;;;;;;;;;;2.50;99.90;;;;;;5074896;28;20380;-73
2022/01/22 16:21:25;;;;;;;;;;;2.50;99.90;;;;;;5075206;28;19977;-73
2022/01/22 16:23:50;;;;;;;;;;;2.50;99.90;;;;;;5074849;28;19909;-72
2022/01/22 16:26:16;;;;;;;;;;;2.50;99.90;;;;;;5075310;28;19916;-73
2022/01/22 16:28:42;;;;;;;;;;;2.50;99.90;;;;;;5075295;28;20417;-72
2022/01/22 16:31:08;;;;;;;;;;;2.40;99.90;;;;;;5074974;28;20368;-72
2022/01/22 16:33:34;;;;;;;;;;;2.40;99.90;;;;;;5074516;28;20015;-72
2022/01/22 16:35:59;;;;;;;;;;;2.40;99.90;;;;;;5078224;28;19916;-72
2022/01/22 16:38:25;;;;;;;;;;;2.40;99.90;;;;;;5080935;28;20007;-73
2022/01/22 16:40:51;;;;;;;;;;;2.40;99.90;;;;;;5081194;28;19908;-72
2022/01/22 16:43:16;;;;;;;;;;;2.30;99.90;;;;;;5080329;28;19914;-72